Palermo, ME (04354)

04:21 PM EDT die 24o July, anno 2016 (GMT -0400)
Cross Road | | Change Station

Elev 341 ft 44.43 °N, 69.52 °W | Updated 10 seconds ago

Clear
Serena
84.1 °F
Feels Like 85 °F
N
1.0
Ventus Variabilis Ventus from Zephyrus
Gusts 9.0 mph

Hodie
High -- | Low -- °F
--% Chance of Precip.
Yesterday
High -- | Low -- °F
Precip. -- in
Pressio 29.98 in
Visibilitas 10.0 milia passuum
Clouds Serena
Index Caloris 85 °F
Frigus in quo Ros apparet 64 °F
Umor 51%
Rainfall 0.00 in
Snow Depth Not available.
5:16 AM 8:11 PM
Waning Gibbous, 73% visible
METAR KWVL 241956Z AUTO 00000KT 10SM CLR 27/13 A2988 RMK AO2 SLP150 T02720133
Pressio 29.98 in
Visibilitas 10.0 milia passuum
Clouds Serena
Index Caloris 85 °F
Frigus in quo Ros apparet 64 °F
Umor 51%
Rainfall 0.00 in
Snow Depth Not available.
5:16 AM 8:11 PM
Waning Gibbous, 73% visible
METAR KWVL 241956Z AUTO 00000KT 10SM CLR 27/13 A2988 RMK AO2 SLP150 T02720133

10-Day Weather Forecast

Almanac

Astronomy

Jul. 24, 2016 Rise Set
Actual Time
Civil Twilight
Nautical Twilight
Astronomical Twilight
Moon
Length Of Visible Light
Length of Day
Tomorrow will be .
, % of the Moon is Illuminated

Today's Extremes

State Highs State Lows

Community

WunderPhotos

Upload Photos

1,927,181 photos uploaded!

WunderBlog® & News

Nearby

Air Quality

  Air Quality AQ Index Pollutant
Not available.

Snow Depth

Station Depth Elevation

Earthquake Activity

City Distance Mag. Time & Date
Minimum magnitude displayed is 2.5.

Coastal Water Temperatures

Locus Calor

Stations

Nearby Weather Stations

Station Location Temp Frigus Venti Frigus in quo Ros apparet Umor Ventus Precip. Elev Renovata Type
                   

Watches & Warnings

There are currently no watches in effect.